Latest Weather Observations for Rockhampton

IDQ60801

Issued at 9:35 pm EST Thursday 18 September 2014 (issued every 30 minutes, with the page automatically refreshed every 10 minutes)

About weather observations | Map of weather stations | Latest weather observations for QLD | Other Formats
Station Details ID: 039083 Name: ROCKHAMPTON AERO Lat: -23.38 Lon: 150.48 Height: 10.4 m
Data from the previous 72 hours. | See also: Recent months at Rockhampton
Date/Time
EST
Temp
°C
App
Temp
°C
Dew
Point
Rel
Hum
%
Delta-T
°C
Wind Press
QNH
hPa
Press
MSL
hPa
Rain
since 9 am
mm
Dir
 
Spd
km/h
Gust
km/h
Spd
kts
Gust
kts
18/09:30pm 16.5 15.4 9.8 64 3.5 ENE 6 7 3 4 1019.2 - 0.0
18/09:00pm 18.7 18.6 9.6 55 4.8 WSW 0 0 0 0 1019.0 1018.9 0.0
18/08:30pm 19.4 18.3 8.6 49 5.6 NW 4 9 2 5 1018.8 - 0.0
18/08:00pm 18.7 16.0 8.9 53 5.1 W 13 15 7 8 1018.6 - 0.0
18/07:30pm 19.4 17.5 8.9 50 5.5 WSW 9 11 5 6 1018.0 - 0.0
18/07:00pm 20.4 17.3 7.3 42 6.7 WSW 13 17 7 9 1017.5 - 0.0
18/06:30pm 21.9 19.3 6.0 35 8.0 W 9 15 5 8 1017.1 - 0.0
18/06:00pm 22.5 20.0 6.4 35 8.2 N 9 11 5 6 1016.5 1016.4 0.0
18/05:30pm 23.9 21.3 7.7 35 8.5 NNE 11 15 6 8 1015.8 - 0.0
18/05:00pm 25.4 21.7 6.5 30 9.8 NNE 15 20 8 11 1015.5 - 0.0
18/04:30pm 26.7 22.0 6.1 27 10.7 NNE 20 28 11 15 1015.0 - 0.0
18/04:00pm 27.8 22.5 5.0 23 11.7 N 22 28 12 15 1014.6 - 0.0
18/03:30pm 28.4 23.3 2.8 19 12.7 N 19 28 10 15 1014.5 - 0.0
18/03:00pm 29.3 26.3 1.7 17 13.5 N 7 22 4 12 1014.5 1014.4 0.0
18/02:30pm 29.6 25.1 -0.5 14 14.2 NE 13 19 7 10 1014.7 - 0.0
18/02:00pm 29.3 26.1 0.5 15 13.8 E 7 13 4 7 1015.1 - 0.0
18/01:30pm 28.7 24.5 -0.6 15 13.7 SE 11 19 6 10 1015.5 - 0.0
18/01:00pm 28.8 25.1 0.1 15 13.6 ENE 9 15 5 8 1016.2 - 0.0
18/12:30pm 28.6 24.0 1.7 17 13.1 NNE 15 20 8 11 1016.8 - 0.0
18/12:00pm 28.0 24.1 1.1 17 12.9 ENE 11 19 6 10 1017.3 1017.2 0.0
18/11:30am 27.7 23.9 1.6 18 12.6 SE 11 19 6 10 1018.0 - 0.0
18/11:00am 27.0 23.9 3.4 22 11.7 ESE 9 17 5 9 1018.5 - 0.0
18/10:30am 25.9 21.8 2.2 21 11.4 SE 13 24 7 13 1019.1 - 0.0
18/10:00am 25.5 21.6 3.2 23 10.9 SE 13 20 7 11 1019.4 - 0.0
18/09:30am 24.8 20.7 4.2 26 10.2 ESE 15 22 8 12 1019.7 - 0.0
18/09:00am 23.5 19.5 4.8 29 9.3 SE 15 20 8 11 1019.7 1019.6 0.0
18/08:30am 22.6 18.9 6.2 34 8.3 SE 15 22 8 12 1019.6 - 0.0
18/08:00am 21.4 18.1 6.6 38 7.5 SE 13 19 7 10 1019.3 - 0.0
18/07:30am 19.7 17.8 9.0 50 5.6 SSE 9 11 5 6 1018.9 - 0.0
18/07:00am 15.1 14.0 11.8 81 1.8 SSW 9 11 5 6 1018.5 - 0.0
18/06:30am 13.1 13.5 11.4 89 0.9 CALM 0 0 0 0 1018.0 - 0.0
18/06:00am 12.7 13.1 11.4 92 0.7 SE 0 0 0 0 1017.6 1017.5 0.0
18/05:30am 13.0 13.3 10.9 87 1.1 CALM 0 0 0 0 1017.1 - 0.0
18/05:00am 13.1 13.5 11.2 88 1.0 CALM 0 0 0 0 1016.5 - 0.0
18/04:30am 13.0 13.3 10.9 87 1.1 CALM 0 0 0 0 1016.2 - 0.0
18/04:00am 14.6 13.2 10.8 78 2.0 SW 9 11 5 6 1016.1 - 0.0
18/03:30am 14.5 13.9 12.3 87 1.2 SSW 7 11 4 6 1016.0 - 0.0
18/03:00am 14.9 15.2 13.5 91 0.8 SSW 4 7 2 4 1015.8 1015.7 0.0
18/02:30am 15.8 16.8 14.2 90 0.9 NNE 2 6 1 3 1015.9 - 0.0
18/02:00am 15.3 16.0 13.3 88 1.1 SW 2 6 1 3 1016.1 - 0.0
18/01:30am 16.2 16.3 14.4 89 1.0 WSW 7 13 4 7 1016.0 - 0.0
18/01:00am 17.9 17.7 15.7 87 1.3 N 11 13 6 7 1015.6 - 0.0
18/12:30am 18.0 17.3 15.4 85 1.5 N 13 15 7 8 1015.5 - 0.0
18/12:00am 18.1 17.2 14.8 81 1.9 N 13 15 7 8 1015.8 1015.7 0.0
 
Date/Time
EST
Temp
°C
App
Temp
°C
Dew
Point
Rel
Hum
%
Delta-T
°C
Wind Press
QNH
hPa
Press
MSL
hPa
Rain
since 9 am
mm
Dir
 
Spd
km/h
Gust
km/h
Spd
kts
Gust
kts
17/11:30pm 17.1 15.9 12.8 76 2.4 N 11 13 6 7 1015.9 - 0.0
17/11:00pm 18.6 17.6 12.3 67 3.5 N 9 11 5 6 1015.9 - 0.0
17/10:30pm 18.9 17.5 10.8 59 4.4 N 9 11 5 6 1015.8 - 0.0
17/10:00pm 19.5 16.7 8.5 49 5.7 N 13 15 7 8 1015.7 - 0.0
17/09:30pm 19.7 16.7 7.6 45 6.2 N 13 17 7 9 1015.6 - 0.0
17/09:00pm 19.3 17.0 9.0 51 5.4 N 11 13 6 7 1015.5 1015.4 0.0
17/08:30pm 21.3 19.6 9.8 48 6.2 N 9 11 5 6 1015.2 - 0.0
17/08:00pm 22.8 21.8 11.1 47 6.5 NNE 7 13 4 7 1014.9 - 0.0
17/07:30pm 23.9 23.0 13.8 53 5.9 N 11 17 6 9 1014.1 - 0.0
17/07:00pm 24.5 22.1 14.4 53 6.0 N 20 26 11 14 1013.5 - 0.0
17/06:30pm 24.9 23.2 14.7 53 6.1 N 17 24 9 13 1013.1 - 0.0
17/06:00pm 26.1 25.1 13.5 45 7.4 N 11 17 6 9 1012.6 1012.5 0.0
17/05:30pm 30.4 26.1 0.7 15 14.4 WNW 13 20 7 11 1012.2 - 0.0
17/05:00pm 31.5 26.4 0.9 14 15.0 WNW 17 20 9 11 1012.1 - 0.0
17/04:30pm 32.1 26.1 -1.6 11 15.9 WSW 20 32 11 17 1011.9 - 0.0
17/04:00pm 32.3 26.2 0.4 13 15.6 WSW 22 32 12 17 1011.8 - 0.0
17/03:30pm 32.3 25.6 -1.0 12 15.9 WSW 24 30 13 16 1011.8 - 0.0
17/03:00pm 32.4 29.2 3.1 15 15.0 NNW 9 19 5 10 1012.0 1011.9 0.0
17/02:30pm 32.5 27.1 2.5 15 15.2 NNW 20 28 11 15 1012.2 - 0.0
17/02:00pm 31.4 28.6 7.1 22 13.2 N 11 24 6 13 1012.7 - 0.0
17/01:30pm 31.2 27.8 5.8 20 13.5 NW 13 24 7 13 1013.3 - 0.0
17/01:00pm 30.5 27.9 7.8 24 12.4 NNW 11 15 6 8 1013.8 - 0.0
17/12:30pm 29.9 25.8 8.5 26 11.8 NW 20 32 11 17 1014.4 - 0.0
17/12:00pm 29.4 25.5 8.5 27 11.5 NW 19 35 10 19 1015.2 1015.1 0.0
17/11:30am 28.1 25.2 9.6 31 10.3 NNW 15 26 8 14 1015.5 - 0.0
17/11:00am 27.7 25.6 11.0 35 9.5 NW 13 19 7 10 1016.2 - 0.0
17/10:30am 26.0 24.4 12.7 43 7.7 NW 13 22 7 12 1016.9 - 0.0
17/10:00am 25.3 24.0 13.7 48 6.8 W 13 20 7 11 1017.3 - 0.0
17/09:30am 23.8 23.7 14.9 57 5.3 WNW 9 17 5 9 1017.7 - 0.0
17/09:00am 21.9 22.3 15.2 65 4.0 N 7 17 4 9 1017.8 1017.7 0.0
17/08:30am 21.4 22.2 16.3 72 3.1 N 7 11 4 6 1017.9 - 0.0
17/08:00am 19.5 20.9 16.3 82 1.9 WSW 4 11 2 6 1017.9 - 0.0
17/07:30am 18.1 19.9 16.4 90 1.0 N 2 6 1 3 1017.8 - 0.0
17/07:00am 16.3 18.0 15.1 93 0.7 CALM 0 0 0 0 1017.4 - 0.0
17/06:30am 15.3 16.0 14.4 94 0.5 SSE 4 9 2 5 1017.0 - 0.0
17/06:00am 14.1 13.8 13.2 94 0.5 SSW 7 20 4 11 1016.5 1016.4 0.0
17/05:48am 14.2 14.4 13.1 93 0.6 SSE 4 7 2 4 1015.8 - 0.0
17/05:30am 13.6 14.5 12.9 95 0.4 CALM 0 0 0 0 1015.6 - 0.0
17/05:00am 13.6 13.8 12.9 95 0.4 S 4 6 2 3 1015.5 - 0.0
17/04:30am 13.8 14.8 13.1 96 0.4 CALM 0 0 0 0 1015.0 - 0.0
17/04:00am 13.9 15.0 13.5 97 0.2 CALM 0 0 0 0 1014.8 - 0.0
17/03:30am 13.6 13.4 12.9 95 0.4 S 6 9 3 5 1014.9 - 0.0
17/03:22am 13.8 14.3 12.9 94 0.5 SSW 2 6 1 3 1014.9 - 0.0
17/03:08am 14.1 14.5 13.6 97 0.3 SSW 4 7 2 4 1014.7 - 0.0
17/03:03am 14.3 14.4 13.8 97 0.3 SSW 6 9 3 5 1014.7 - 0.0
17/03:00am 14.4 14.3 13.9 97 0.3 SSW 7 9 4 5 1014.7 1014.6 0.0
17/02:58am 14.5 14.4 13.8 96 0.4 SSW 7 9 4 5 1014.8 - 0.0
17/02:30am 14.8 15.7 14.1 96 0.4 NW 2 6 1 3 1014.9 - 0.0
17/02:16am 15.3 16.9 14.8 97 0.3 CALM 0 4 0 2 1015.2 - 0.0
17/02:00am 14.8 15.5 14.4 97 0.2 NNW 4 7 2 4 1015.2 - 0.0
17/01:57am 15.2 16.3 14.5 96 0.4 WNW 2 7 1 4 1015.2 - 0.0
17/01:30am 15.6 17.0 14.5 93 0.6 CALM 0 0 0 0 1015.5 - 0.0
17/01:00am 16.2 17.5 15.2 94 0.6 N 2 7 1 4 1015.4 - 0.0
17/12:30am 16.7 18.5 15.5 93 0.7 CALM 0 0 0 0 1015.5 - 0.0
17/12:00am 17.1 18.6 15.7 91 0.8 N 2 6 1 3 1015.9 1015.8 0.0
 
Date/Time
EST
Temp
°C
App
Temp
°C
Dew
Point
Rel
Hum
%
Delta-T
°C
Wind Press
QNH
hPa
Press
MSL
hPa
Rain
since 9 am
mm
Dir
 
Spd
km/h
Gust
km/h
Spd
kts
Gust
kts
16/11:30pm 17.4 18.0 15.7 90 1.0 N 7 9 4 5 1016.3 - 0.0
16/11:00pm 18.3 18.6 15.9 86 1.4 N 9 13 5 7 1016.5 - 0.0
16/10:30pm 18.6 18.5 15.9 84 1.6 N 11 13 6 7 1016.3 - 0.0
16/10:00pm 18.9 18.4 16.0 83 1.7 N 13 17 7 9 1016.2 - 0.0
16/09:30pm 19.1 19.4 16.1 83 1.8 N 9 13 5 7 1016.3 - 0.0
16/09:00pm 19.3 19.2 15.9 81 2.0 N 11 13 6 7 1016.1 1016.0 0.0
16/08:30pm 19.7 18.3 15.6 77 2.4 N 17 20 9 11 1015.7 - 0.0
16/08:00pm 20.2 18.3 15.1 72 3.0 N 19 20 10 11 1015.5 - 0.0
16/07:30pm 21.1 18.6 13.6 62 4.3 N 19 24 10 13 1015.1 - 0.0
16/07:00pm 22.3 19.4 8.0 40 7.5 N 13 17 7 9 1014.2 - 0.0
16/06:30pm 23.2 20.6 9.3 41 7.5 N 13 17 7 9 1013.6 - 0.0
16/06:00pm 23.9 21.0 8.0 36 8.4 NNE 13 17 7 9 1013.3 1013.2 0.0
16/05:30pm 26.2 22.9 6.2 28 10.4 NNE 13 20 7 11 1013.1 - 0.0
16/05:00pm 27.4 23.2 8.2 29 10.4 NNE 20 26 11 14 1012.9 - 0.0
16/04:30pm 28.7 24.0 7.9 27 11.3 N 22 28 12 15 1012.7 - 0.0
16/04:00pm 29.5 25.1 7.5 25 11.9 NE 20 26 11 14 1012.8 - 0.0
16/03:30pm 30.4 27.5 4.8 19 13.3 NNW 9 17 5 9 1012.8 - 0.0
16/03:00pm 29.6 27.4 6.2 23 12.4 ENE 7 19 4 10 1013.0 1012.9 0.0
16/02:30pm 29.9 27.7 5.5 21 12.8 SSE 6 11 3 6 1013.2 - 0.0
16/02:00pm 29.1 25.4 4.2 20 12.7 N 13 22 7 12 1013.6 - 0.0
16/01:30pm 29.8 27.3 3.9 19 13.2 NW 6 13 3 7 1014.0 - 0.0
16/01:00pm 28.7 24.9 4.1 20 12.5 SW 13 20 7 11 1014.6 - 0.0
16/12:30pm 28.5 25.6 4.7 22 12.2 NNW 9 19 5 10 1015.2 - 0.0
16/12:00pm 28.4 24.9 5.5 23 11.9 N 13 19 7 10 1015.8 1015.7 0.0
16/11:30am 26.9 24.4 8.2 30 10.1 NE 11 20 6 11 1016.5 - 0.0
16/11:00am 27.1 25.8 11.3 37 9.0 NNW 9 17 5 9 1017.2 - 0.0
16/10:30am 25.1 24.1 12.4 45 7.3 NNW 9 17 5 9 1017.7 - 0.0
16/10:00am 23.9 22.3 12.8 49 6.4 N 13 19 7 10 1018.2 - 0.0
16/09:30am 23.2 23.2 14.2 57 5.3 N 7 13 4 7 1018.6 - 0.0
16/09:00am 20.7 21.4 15.7 73 3.0 NW 6 11 3 6 1019.0 1018.9 0.0
16/08:30am 19.1 20.4 15.2 78 2.3 W 2 6 1 3 1019.0 - 0.0
16/08:27am 18.6 20.0 15.4 81 1.9 WSW 2 6 1 3 1019.0 - 0.0
16/08:20am 18.1 19.8 15.2 83 1.7 CALM 0 6 0 3 1019.1 - 0.0
16/08:00am 16.0 17.0 14.4 90 0.9 W 2 6 1 3 1019.1 - 0.0
16/07:47am 15.3 16.0 14.4 94 0.5 WSW 4 7 2 4 1019.0 - 0.0
16/07:40am 14.8 15.7 14.1 96 0.4 SW 2 6 1 3 1019.0 - 0.0
16/07:30am 14.2 15.4 13.7 97 0.3 CALM 0 - 0 - 1018.9 - 0.0
16/07:21am 13.9 15.1 13.7 99 0.1 CALM 0 - 0 - 1018.8 - 0.0
16/07:14am 13.8 14.9 13.6 99 0.1 CALM 0 - 0 - 1018.7 - 0.0
16/07:00am 13.4 14.4 13.2 99 0.1 CALM 0 - 0 - 1018.5 - 0.0
16/06:41am 12.5 13.2 12.3 99 0.1 CALM 0 - 0 - 1018.4 - 0.0
16/06:34am 12.3 13.0 12.1 99 0.1 CALM 0 - 0 - 1018.3 - 0.0
16/06:29am 12.1 12.7 11.9 99 0.1 CALM 0 - 0 - 1018.3 - 0.0
16/06:23am 12.0 12.6 11.8 99 0.1 CALM 0 - 0 - 1018.2 - 0.0
16/06:07am 11.8 12.3 11.6 99 0.1 CALM 0 - 0 - 1018.1 - 0.0
16/06:00am 11.9 12.4 11.7 99 0.1 CALM 0 - 0 - 1018.0 1017.9 0.0
16/05:53am 11.9 12.4 11.7 99 0.1 CALM 0 0 0 0 1018.0 - 0.0
16/05:30am 12.1 12.6 11.7 97 0.2 CALM 0 - 0 - 1017.8 - 0.0
16/05:23am 11.7 12.1 11.3 97 0.2 CALM 0 - 0 - 1017.7 - 0.0
16/05:09am 11.7 12.2 11.5 99 0.1 CALM 0 - 0 - 1017.5 - 0.0
16/05:08am 11.7 12.2 11.5 99 0.1 CALM 0 - 0 - 1017.5 - 0.0
16/05:02am 11.9 12.5 11.9 100 0.0 CALM 0 - 0 - 1017.5 - 0.0
16/05:00am 12.1 12.7 11.9 99 0.1 CALM 0 - 0 - 1017.5 - 0.0
16/04:58am 12.2 12.8 11.8 97 0.2 CALM 0 - 0 - 1017.4 - 0.0
16/04:42am 12.0 12.6 11.8 99 0.1 CALM 0 4 0 2 1017.2 - 0.0
16/04:30am 12.2 11.4 11.8 97 0.2 SSW 7 9 4 5 1017.1 - 0.0
16/04:23am 12.1 12.3 11.9 99 0.1 S 2 9 1 5 1017.0 - 0.0
16/04:18am 12.4 13.0 12.0 97 0.2 CALM 0 - 0 - 1016.9 - 0.0
16/04:00am 12.4 13.0 11.8 96 0.3 CALM 0 - 0 - 1016.6 - 0.0
16/03:38am 12.7 13.4 12.1 96 0.3 CALM 0 0 0 0 1016.5 - 0.0
16/03:30am 12.8 13.5 12.1 95 0.4 CALM 0 0 0 0 1016.5 - 0.0
16/03:00am 13.3 14.1 12.4 94 0.5 CALM 0 0 0 0 1016.5 1016.4 0.0
16/02:30am 13.3 14.1 12.4 94 0.5 CALM 0 0 0 0 1016.5 - 0.0
16/02:00am 13.5 14.3 12.6 94 0.5 CALM 0 0 0 0 1016.6 - 0.0
16/01:30am 14.2 15.0 12.7 91 0.8 CALM 0 0 0 0 1016.7 - 0.0
16/01:00am 14.6 15.5 13.0 90 0.9 CALM 0 0 0 0 1016.8 - 0.0
16/12:30am 14.6 15.6 13.2 91 0.8 CALM 0 0 0 0 1016.9 - 0.0
16/12:00am 15.1 16.3 13.7 91 0.8 CALM 0 0 0 0 1017.3 1017.2 0.0
 
Date/Time
EST
Temp
°C
App
Temp
°C
Dew
Point
Rel
Hum
%
Delta-T
°C
Wind Press
QNH
hPa
Press
MSL
hPa
Rain
since 9 am
mm
Dir
 
Spd
km/h
Gust
km/h
Spd
kts
Gust
kts
15/11:30pm 15.9 17.2 14.0 88 1.1 CALM 0 6 0 3 1017.5 - 0.0
15/11:00pm 17.0 16.7 14.4 85 1.5 S 9 17 5 9 1017.3 - 0.0
15/10:30pm 15.3 15.8 11.6 78 2.0 CALM 0 0 0 0 1017.5 - 0.0
15/10:00pm 16.1 15.4 11.9 76 2.3 W 7 9 4 5 1017.4 - 0.0

Other Formats:

Comma delimited format used in spreadsheet applications
http://www.bom.gov.au/fwo/IDQ60801/IDQ60801.94374.axf

JavaScript Object Notation format (JSON) in row-major order
http://www.bom.gov.au/fwo/IDQ60801/IDQ60801.94374.json